CheckWX is a tool to help pilots better visualize weather data.  It is not intended as a substitute for an official pre-flight weather briefing.

07:41:30 UTC

KYKM METAR
Yakima Air Terminal / McAllister Field Airport
Yakima, Washington, USA
Current

49 mins ago

KYKM 150653Z AUTO 00000KT 10SM OVC020 06/02 A3011 RMK AO2 SLP203 T00560022
Observed
Nov-15 @ 06:53 UTC
Visibility
10 SM
Flight Rules
MVFR
Cloud Levels
  • Overcast at 2,000' AGL
Temperature
C / 43°F
Dewpoint
C / 36°F
Humidity
76%
Altimeter
30.11" Hg
Pressure
1019.62 hPa
Previous

2 hours ago

KYKM 150553Z 27003KT 10SM OVC020 06/02 A3012 RMK AO2 SLP205 T00610022 10072 20056 56003
Observed
Nov-15 @ 05:53 UTC
Wind
  • 270° at 3 KTS
Visibility
10 SM
Flight Rules
MVFR
Cloud Levels
  • Overcast at 2,000' AGL
Temperature
C / 43°F
Dewpoint
C / 36°F
Humidity
76%
Altimeter
30.12" Hg
Pressure
1020.02 hPa
Previous

3 hours ago

KYKM 150453Z 26003KT 10SM OVC019 06/02 A3012 RMK AO2 SLP205 T00610022
Observed
Nov-15 @ 04:53 UTC
Wind
  • 260° at 3 KTS
Visibility
10 SM
Flight Rules
MVFR
Cloud Levels
  • Overcast at 1,900' AGL
Temperature
C / 43°F
Dewpoint
C / 36°F
Humidity
76%
Altimeter
30.12" Hg
Pressure
1020.02 hPa